sensor_id;sensor_type;location;lat;lon;timestamp;P1;P2;P0
56495;PMS5003;42804;55.762;38.084;2023-07-13T00:01:20;3.00;3.00;3.00
56495;PMS5003;42804;55.762;38.084;2023-07-13T00:03:50;4.25;4.25;3.00
56495;PMS5003;42804;55.762;38.084;2023-07-13T00:06:19;2.75;2.25;1.00
56495;PMS5003;42804;55.762;38.084;2023-07-13T00:08:48;3.75;3.75;2.50
56495;PMS5003;42804;55.762;38.084;2023-07-13T00:11:17;6.50;4.25;2.25
56495;PMS5003;42804;55.762;38.084;2023-07-13T00:13:45;4.00;3.00;2.00
56495;PMS5003;42804;55.762;38.084;2023-07-13T00:16:15;6.25;5.75;2.75
56495;PMS5003;42804;55.762;38.084;2023-07-13T00:18:43;6.25;5.75;2.50
56495;PMS5003;42804;55.762;38.084;2023-07-13T00:21:11;5.75;5.00;3.00
56495;PMS5003;42804;55.762;38.084;2023-07-13T00:23:41;7.25;5.50;3.50
56495;PMS5003;42804;55.762;38.084;2023-07-13T00:26:10;6.75;5.50;3.00
56495;PMS5003;42804;55.762;38.084;2023-07-13T00:28:40;6.25;6.25;3.25
56495;PMS5003;42804;55.762;38.084;2023-07-13T00:31:09;7.50;6.00;5.00
56495;PMS5003;42804;55.762;38.084;2023-07-13T00:33:40;6.50;6.50;3.00
56495;PMS5003;42804;55.762;38.084;2023-07-13T00:36:21;6.25;5.75;2.50
56495;PMS5003;42804;55.762;38.084;2023-07-13T00:38:51;6.25;5.25;3.00
56495;PMS5003;42804;55.762;38.084;2023-07-13T00:41:22;5.75;5.50;3.00
56495;PMS5003;42804;55.762;38.084;2023-07-13T00:43:58;4.50;4.50;3.00
56495;PMS5003;42804;55.762;38.084;2023-07-13T00:46:28;7.00;5.00;2.25
56495;PMS5003;42804;55.762;38.084;2023-07-13T00:48:59;5.00;5.00;3.00
56495;PMS5003;42804;55.762;38.084;2023-07-13T00:51:30;4.00;4.00;3.00
56495;PMS5003;42804;55.762;38.084;2023-07-13T00:54:01;5.50;4.25;2.50
56495;PMS5003;42804;55.762;38.084;2023-07-13T00:56:31;5.75;4.25;2.75
56495;PMS5003;42804;55.762;38.084;2023-07-13T00:59:01;6.50;5.50;3.00
56495;PMS5003;42804;55.762;38.084;2023-07-13T01:01:30;3.00;3.00;2.00
56495;PMS5003;42804;55.762;38.084;2023-07-13T01:04:01;3.25;3.25;2.00
56495;PMS5003;42804;55.762;38.084;2023-07-13T01:06:30;5.00;2.75;2.00
56495;PMS5003;42804;55.762;38.084;2023-07-13T01:08:59;3.50;2.75;1.50
56495;PMS5003;42804;55.762;38.084;2023-07-13T01:11:27;3.00;2.50;2.00
56495;PMS5003;42804;55.762;38.084;2023-07-13T01:13:56;2.00;1.60;1.00
56495;PMS5003;42804;55.762;38.084;2023-07-13T01:16:25;5.00;5.00;3.00
56495;PMS5003;42804;55.762;38.084;2023-07-13T01:18:55;2.20;2.00;1.20
56495;PMS5003;42804;55.762;38.084;2023-07-13T01:21:28;2.00;2.00;1.00
56495;PMS5003;42804;55.762;38.084;2023-07-13T01:23:58;4.60;3.00;2.00
56495;PMS5003;42804;55.762;38.084;2023-07-13T01:26:27;4.00;4.00;2.00
56495;PMS5003;42804;55.762;38.084;2023-07-13T01:28:57;5.00;5.00;2.00
56495;PMS5003;42804;55.762;38.084;2023-07-13T01:31:26;3.00;3.00;2.00
56495;PMS5003;42804;55.762;38.084;2023-07-13T01:33:54;2.00;2.00;0.50
56495;PMS5003;42804;55.762;38.084;2023-07-13T01:36:24;6.00;5.00;3.00
56495;PMS5003;42804;55.762;38.084;2023-07-13T01:38:54;4.20;4.20;1.80
56495;PMS5003;42804;55.762;38.084;2023-07-13T01:41:22;3.00;3.00;3.00
56495;PMS5003;42804;55.762;38.084;2023-07-13T01:43:53;4.00;4.00;2.00
56495;PMS5003;42804;55.762;38.084;2023-07-13T01:46:21;2.00;2.00;0.00
56495;PMS5003;42804;55.762;38.084;2023-07-13T01:48:50;4.50;4.00;2.00
56495;PMS5003;42804;55.762;38.084;2023-07-13T01:51:19;3.00;2.50;2.00
56495;PMS5003;42804;55.762;38.084;2023-07-13T01:53:47;4.00;4.00;2.00
56495;PMS5003;42804;55.762;38.084;2023-07-13T01:56:18;6.75;6.00;3.00
56495;PMS5003;42804;55.762;38.084;2023-07-13T01:58:47;5.75;4.75;3.25
56495;PMS5003;42804;55.762;38.084;2023-07-13T02:01:15;4.50;4.50;2.00
56495;PMS5003;42804;55.762;38.084;2023-07-13T02:03:44;3.75;2.25;1.00
56495;PMS5003;42804;55.762;38.084;2023-07-13T02:06:13;3.50;3.25;2.00
56495;PMS5003;42804;55.762;38.084;2023-07-13T02:08:41;2.00;2.00;1.00
56495;PMS5003;42804;55.762;38.084;2023-07-13T02:11:10;3.00;3.00;2.00
56495;PMS5003;42804;55.762;38.084;2023-07-13T02:13:39;5.00;3.75;2.25
56495;PMS5003;42804;55.762;38.084;2023-07-13T02:16:08;3.75;2.75;0.00
56495;PMS5003;42804;55.762;38.084;2023-07-13T02:18:37;6.25;5.00;3.00
56495;PMS5003;42804;55.762;38.084;2023-07-13T02:21:05;4.00;4.00;2.00
56495;PMS5003;42804;55.762;38.084;2023-07-13T02:23:34;4.00;4.00;2.00
56495;PMS5003;42804;55.762;38.084;2023-07-13T02:26:03;4.00;3.80;2.00
56495;PMS5003;42804;55.762;38.084;2023-07-13T02:28:32;3.80;3.80;2.00
56495;PMS5003;42804;55.762;38.084;2023-07-13T02:31:08;4.40;4.40;2.60
56495;PMS5003;42804;55.762;38.084;2023-07-13T02:33:37;3.40;3.40;2.80
56495;PMS5003;42804;55.762;38.084;2023-07-13T02:36:06;3.20;2.80;2.00
56495;PMS5003;42804;55.762;38.084;2023-07-13T02:38:35;5.20;5.20;3.00
56495;PMS5003;42804;55.762;38.084;2023-07-13T02:41:03;4.00;3.40;2.40
56495;PMS5003;42804;55.762;38.084;2023-07-13T02:43:32;4.20;3.20;2.00
56495;PMS5003;42804;55.762;38.084;2023-07-13T02:46:01;4.80;4.80;3.00
56495;PMS5003;42804;55.762;38.084;2023-07-13T02:48:37;6.25;5.00;2.75
56495;PMS5003;42804;55.762;38.084;2023-07-13T02:51:06;3.00;3.00;2.00
56495;PMS5003;42804;55.762;38.084;2023-07-13T02:53:36;4.50;4.25;1.75
56495;PMS5003;42804;55.762;38.084;2023-07-13T02:56:05;5.75;5.50;2.50
56495;PMS5003;42804;55.762;38.084;2023-07-13T02:58:34;4.00;3.20;2.00
56495;PMS5003;42804;55.762;38.084;2023-07-13T03:01:06;7.50;6.50;2.75
56495;PMS5003;42804;55.762;38.084;2023-07-13T03:03:36;8.25;4.00;3.00
56495;PMS5003;42804;55.762;38.084;2023-07-13T03:06:05;7.50;7.50;4.00
56495;PMS5003;42804;55.762;38.084;2023-07-13T03:08:44;4.50;4.50;3.00
56495;PMS5003;42804;55.762;38.084;2023-07-13T03:11:13;6.75;6.25;3.00
56495;PMS5003;42804;55.762;38.084;2023-07-13T03:13:43;7.00;5.00;4.00
56495;PMS5003;42804;55.762;38.084;2023-07-13T03:16:13;7.20;6.40;3.80
56495;PMS5003;42804;55.762;38.084;2023-07-13T03:18:48;9.20;8.00;5.60
56495;PMS5003;42804;55.762;38.084;2023-07-13T03:21:17;7.40;6.80;4.00
56495;PMS5003;42804;55.762;38.084;2023-07-13T03:23:46;6.20;6.20;3.60
56495;PMS5003;42804;55.762;38.084;2023-07-13T03:26:15;8.40;8.00;3.20
56495;PMS5003;42804;55.762;38.084;2023-07-13T03:28:44;7.00;5.20;2.40
56495;PMS5003;42804;55.762;38.084;2023-07-13T03:31:18;8.25;7.00;4.00
56495;PMS5003;42804;55.762;38.084;2023-07-13T03:33:49;7.75;6.50;3.50
56495;PMS5003;42804;55.762;38.084;2023-07-13T03:36:19;7.00;6.50;3.00
56495;PMS5003;42804;55.762;38.084;2023-07-13T03:38:48;5.00;4.50;3.25
56495;PMS5003;42804;55.762;38.084;2023-07-13T03:41:20;5.00;5.00;4.00
56495;PMS5003;42804;55.762;38.084;2023-07-13T03:43:51;7.40;7.40;4.00
56495;PMS5003;42804;55.762;38.084;2023-07-13T03:46:23;7.00;7.00;3.80
56495;PMS5003;42804;55.762;38.084;2023-07-13T03:48:53;3.75;3.50;2.00
56495;PMS5003;42804;55.762;38.084;2023-07-13T03:51:21;6.00;6.00;4.00
56495;PMS5003;42804;55.762;38.084;2023-07-13T03:53:50;6.50;4.75;2.75
56495;PMS5003;42804;55.762;38.084;2023-07-13T03:56:19;7.25;7.25;5.00
56495;PMS5003;42804;55.762;38.084;2023-07-13T03:58:48;6.00;6.00;4.00
56495;PMS5003;42804;55.762;38.084;2023-07-13T04:01:19;5.25;4.25;3.25
56495;PMS5003;42804;55.762;38.084;2023-07-13T04:03:48;4.50;4.00;3.00
56495;PMS5003;42804;55.762;38.084;2023-07-13T04:06:19;5.00;5.00;3.00
56495;PMS5003;42804;55.762;38.084;2023-07-13T04:08:52;7.00;6.40;4.00
56495;PMS5003;42804;55.762;38.084;2023-07-13T04:11:22;3.60;3.00;2.20
56495;PMS5003;42804;55.762;38.084;2023-07-13T04:13:50;4.00;4.00;3.00
56495;PMS5003;42804;55.762;38.084;2023-07-13T04:16:19;7.00;7.00;3.20
56495;PMS5003;42804;55.762;38.084;2023-07-13T04:18:48;4.00;3.50;2.00
56495;PMS5003;42804;55.762;38.084;2023-07-13T04:21:16;4.00;3.75;2.75
56495;PMS5003;42804;55.762;38.084;2023-07-13T04:23:47;3.00;2.25;0.50
56495;PMS5003;42804;55.762;38.084;2023-07-13T04:26:16;6.75;6.75;3.75
56495;PMS5003;42804;55.762;38.084;2023-07-13T04:28:44;6.50;6.50;3.75
56495;PMS5003;42804;55.762;38.084;2023-07-13T04:31:13;8.50;8.00;4.25
56495;PMS5003;42804;55.762;38.084;2023-07-13T04:33:41;7.00;5.00;3.75
56495;PMS5003;42804;55.762;38.084;2023-07-13T04:36:13;7.00;7.00;3.50
56495;PMS5003;42804;55.762;38.084;2023-07-13T04:38:42;9.75;8.25;5.00
56495;PMS5003;42804;55.762;38.084;2023-07-13T04:41:13;9.75;9.50;5.00
56495;PMS5003;42804;55.762;38.084;2023-07-13T04:43:42;4.00;4.00;3.20
56495;PMS5003;42804;55.762;38.084;2023-07-13T04:46:11;5.00;5.00;2.40
56495;PMS5003;42804;55.762;38.084;2023-07-13T04:48:40;6.60;4.20;2.80
56495;PMS5003;42804;55.762;38.084;2023-07-13T04:51:09;5.00;5.00;3.00
56495;PMS5003;42804;55.762;38.084;2023-07-13T04:53:38;5.50;5.50;4.00
56495;PMS5003;42804;55.762;38.084;2023-07-13T04:56:06;5.50;5.00;3.00
56495;PMS5003;42804;55.762;38.084;2023-07-13T04:58:37;8.00;8.00;4.50
56495;PMS5003;42804;55.762;38.084;2023-07-13T05:01:07;7.75;6.75;4.00
56495;PMS5003;42804;55.762;38.084;2023-07-13T05:03:36;5.00;5.00;3.75
56495;PMS5003;42804;55.762;38.084;2023-07-13T05:06:05;7.40;5.60;3.40
56495;PMS5003;42804;55.762;38.084;2023-07-13T05:08:34;6.50;6.50;3.75
56495;PMS5003;42804;55.762;38.084;2023-07-13T05:11:03;5.00;5.00;4.00
56495;PMS5003;42804;55.762;38.084;2023-07-13T05:13:32;2.00;2.00;1.00
56495;PMS5003;42804;55.762;38.084;2023-07-13T05:16:02;5.75;5.00;3.25
56495;PMS5003;42804;55.762;38.084;2023-07-13T05:18:31;4.25;3.75;3.00
56495;PMS5003;42804;55.762;38.084;2023-07-13T05:21:00;5.00;5.00;3.00
56495;PMS5003;42804;55.762;38.084;2023-07-13T05:23:29;6.75;6.75;3.50
56495;PMS5003;42804;55.762;38.084;2023-07-13T05:25:58;7.75;7.75;5.00
56495;PMS5003;42804;55.762;38.084;2023-07-13T05:28:27;6.80;5.20;4.00
56495;PMS5003;42804;55.762;38.084;2023-07-13T05:30:56;7.50;7.25;3.75
56495;PMS5003;42804;55.762;38.084;2023-07-13T05:33:26;5.60;5.20;3.80
56495;PMS5003;42804;55.762;38.084;2023-07-13T05:35:55;4.60;4.60;3.20
56495;PMS5003;42804;55.762;38.084;2023-07-13T05:38:23;6.60;6.60;4.00
56495;PMS5003;42804;55.762;38.084;2023-07-13T05:40:52;7.00;5.80;3.60
56495;PMS5003;42804;55.762;38.084;2023-07-13T05:43:21;8.60;8.00;4.40
56495;PMS5003;42804;55.762;38.084;2023-07-13T05:45:53;10.20;9.20;4.00
56495;PMS5003;42804;55.762;38.084;2023-07-13T05:48:22;6.40;6.40;4.40
56495;PMS5003;42804;55.762;38.084;2023-07-13T05:50:52;6.80;5.00;2.60
56495;PMS5003;42804;55.762;38.084;2023-07-13T05:53:21;5.50;5.25;3.50
56495;PMS5003;42804;55.762;38.084;2023-07-13T05:55:49;7.50;6.50;4.00
56495;PMS5003;42804;55.762;38.084;2023-07-13T05:58:20;6.75;5.25;3.75
56495;PMS5003;42804;55.762;38.084;2023-07-13T06:00:48;8.80;7.00;3.40
56495;PMS5003;42804;55.762;38.084;2023-07-13T06:03:16;9.00;6.00;4.50
56495;PMS5003;42804;55.762;38.084;2023-07-13T06:05:45;7.75;7.75;5.00
56495;PMS5003;42804;55.762;38.084;2023-07-13T06:08:15;6.00;6.00;4.50
56495;PMS5003;42804;55.762;38.084;2023-07-13T06:10:43;9.80;7.00;4.60
56495;PMS5003;42804;55.762;38.084;2023-07-13T06:13:11;5.40;5.40;4.00
56495;PMS5003;42804;55.762;38.084;2023-07-13T06:15:40;8.60;7.80;5.40
56495;PMS5003;42804;55.762;38.084;2023-07-13T06:18:08;6.20;6.20;4.40
56495;PMS5003;42804;55.762;38.084;2023-07-13T06:20:37;5.60;5.60;4.40
56495;PMS5003;42804;55.762;38.084;2023-07-13T06:23:05;8.40;6.80;4.00
56495;PMS5003;42804;55.762;38.084;2023-07-13T06:25:35;5.20;4.60;3.00
56495;PMS5003;42804;55.762;38.084;2023-07-13T06:28:03;5.00;5.00;4.00
56495;PMS5003;42804;55.762;38.084;2023-07-13T06:30:32;6.60;6.00;4.00
56495;PMS5003;42804;55.762;38.084;2023-07-13T06:33:00;3.00;3.00;1.00
56495;PMS5003;42804;55.762;38.084;2023-07-13T06:35:28;6.00;5.60;4.00
56495;PMS5003;42804;55.762;38.084;2023-07-13T06:37:57;6.00;5.00;3.00
56495;PMS5003;42804;55.762;38.084;2023-07-13T06:40:25;6.75;6.00;4.50
56495;PMS5003;42804;55.762;38.084;2023-07-13T06:42:57;6.00;6.00;4.60
56495;PMS5003;42804;55.762;38.084;2023-07-13T06:45:25;6.00;5.25;4.00
56495;PMS5003;42804;55.762;38.084;2023-07-13T06:47:54;7.75;7.25;6.00
56495;PMS5003;42804;55.762;38.084;2023-07-13T06:50:22;5.50;5.00;3.00
56495;PMS5003;42804;55.762;38.084;2023-07-13T06:52:51;6.00;5.25;4.00
56495;PMS5003;42804;55.762;38.084;2023-07-13T06:55:19;3.50;3.50;2.00
56495;PMS5003;42804;55.762;38.084;2023-07-13T06:57:50;7.80;4.80;2.60
56495;PMS5003;42804;55.762;38.084;2023-07-13T07:00:20;6.75;5.50;3.00
56495;PMS5003;42804;55.762;38.084;2023-07-13T07:02:48;7.00;7.00;5.00
56495;PMS5003;42804;55.762;38.084;2023-07-13T07:05:17;5.50;5.50;3.50
56495;PMS5003;42804;55.762;38.084;2023-07-13T07:07:49;4.25;4.25;3.00
56495;PMS5003;42804;55.762;38.084;2023-07-13T07:10:17;5.50;4.75;3.00
56495;PMS5003;42804;55.762;38.084;2023-07-13T07:12:46;5.00;4.50;3.00
56495;PMS5003;42804;55.762;38.084;2023-07-13T07:15:15;7.00;6.00;3.25
56495;PMS5003;42804;55.762;38.084;2023-07-13T07:17:44;5.40;5.40;4.00
56495;PMS5003;42804;55.762;38.084;2023-07-13T07:20:13;6.00;5.40;4.00
56495;PMS5003;42804;55.762;38.084;2023-07-13T07:22:41;6.40;6.40;4.00
56495;PMS5003;42804;55.762;38.084;2023-07-13T07:25:10;4.80;4.80;3.20
56495;PMS5003;42804;55.762;38.084;2023-07-13T07:27:39;3.40;3.20;2.00
56495;PMS5003;42804;55.762;38.084;2023-07-13T07:30:10;4.20;4.20;2.40
56495;PMS5003;42804;55.762;38.084;2023-07-13T07:32:42;5.20;5.20;3.40
56495;PMS5003;42804;55.762;38.084;2023-07-13T07:35:14;5.50;5.50;3.50
56495;PMS5003;42804;55.762;38.084;2023-07-13T07:37:43;6.25;5.50;3.50
56495;PMS5003;42804;55.762;38.084;2023-07-13T07:40:14;5.20;5.00;2.80
56495;PMS5003;42804;55.762;38.084;2023-07-13T07:42:45;3.80;3.80;3.20
56495;PMS5003;42804;55.762;38.084;2023-07-13T07:45:14;5.40;4.80;2.20
56495;PMS5003;42804;55.762;38.084;2023-07-13T07:47:42;4.00;4.00;4.00
56495;PMS5003;42804;55.762;38.084;2023-07-13T07:50:11;2.75;2.75;2.25
56495;PMS5003;42804;55.762;38.084;2023-07-13T07:52:41;5.50;3.00;2.25
56495;PMS5003;42804;55.762;38.084;2023-07-13T07:55:11;5.00;4.20;2.80
56495;PMS5003;42804;55.762;38.084;2023-07-13T07:57:42;5.75;5.50;3.00
56495;PMS5003;42804;55.762;38.084;2023-07-13T08:00:14;8.00;6.50;4.50
56495;PMS5003;42804;55.762;38.084;2023-07-13T08:02:46;6.80;3.80;1.00
56495;PMS5003;42804;55.762;38.084;2023-07-13T08:05:18;7.50;7.00;4.50
56495;PMS5003;42804;55.762;38.084;2023-07-13T08:08:04;7.25;7.25;4.50
56495;PMS5003;42804;55.762;38.084;2023-07-13T08:10:35;8.75;8.25;6.25
56495;PMS5003;42804;55.762;38.084;2023-07-13T08:13:03;8.50;8.00;6.00
56495;PMS5003;42804;55.762;38.084;2023-07-13T08:15:37;10.00;9.75;7.00
56495;PMS5003;42804;55.762;38.084;2023-07-13T08:18:05;8.00;8.00;6.00
56495;PMS5003;42804;55.762;38.084;2023-07-13T08:20:36;10.00;10.00;6.50
56495;PMS5003;42804;55.762;38.084;2023-07-13T08:23:06;10.25;10.00;6.25
56495;PMS5003;42804;55.762;38.084;2023-07-13T08:25:35;9.25;9.25;6.00
56495;PMS5003;42804;55.762;38.084;2023-07-13T08:28:03;11.25;9.00;6.50
56495;PMS5003;42804;55.762;38.084;2023-07-13T08:30:32;8.25;8.00;6.75
56495;PMS5003;42804;55.762;38.084;2023-07-13T08:33:00;9.50;9.00;7.00
56495;PMS5003;42804;55.762;38.084;2023-07-13T08:35:29;11.25;10.00;7.25
56495;PMS5003;42804;55.762;38.084;2023-07-13T08:37:57;6.50;6.00;3.25
56495;PMS5003;42804;55.762;38.084;2023-07-13T08:40:28;8.00;7.50;6.00
56495;PMS5003;42804;55.762;38.084;2023-07-13T08:42:58;10.25;9.50;6.00
56495;PMS5003;42804;55.762;38.084;2023-07-13T08:45:28;11.00;9.00;7.00
56495;PMS5003;42804;55.762;38.084;2023-07-13T08:48:00;9.75;9.00;6.25
56495;PMS5003;42804;55.762;38.084;2023-07-13T08:50:32;10.50;9.75;5.00
56495;PMS5003;42804;55.762;38.084;2023-07-13T08:53:23;12.00;12.00;6.50
56495;PMS5003;42804;55.762;38.084;2023-07-13T08:55:57;9.00;7.25;3.50
56495;PMS5003;42804;55.762;38.084;2023-07-13T08:58:26;12.50;12.00;8.25
56495;PMS5003;42804;55.762;38.084;2023-07-13T09:00:56;10.80;9.00;5.20
56495;PMS5003;42804;55.762;38.084;2023-07-13T09:03:29;10.00;9.25;7.00
56495;PMS5003;42804;55.762;38.084;2023-07-13T09:05:58;13.25;11.75;9.00
56495;PMS5003;42804;55.762;38.084;2023-07-13T09:08:38;12.25;12.25;9.00
56495;PMS5003;42804;55.762;38.084;2023-07-13T09:11:18;15.75;14.25;9.25
56495;PMS5003;42804;55.762;38.084;2023-07-13T09:13:53;16.25;16.00;11.75
56495;PMS5003;42804;55.762;38.084;2023-07-13T09:16:24;18.25;17.00;11.00
56495;PMS5003;42804;55.762;38.084;2023-07-13T09:18:54;14.50;12.50;9.00
56495;PMS5003;42804;55.762;38.084;2023-07-13T09:21:24;10.75;10.50;7.50
56495;PMS5003;42804;55.762;38.084;2023-07-13T09:23:56;10.50;10.50;7.25
56495;PMS5003;42804;55.762;38.084;2023-07-13T09:26:29;13.50;13.00;9.00
56495;PMS5003;42804;55.762;38.084;2023-07-13T09:28:59;10.00;10.00;7.00
56495;PMS5003;42804;55.762;38.084;2023-07-13T09:31:32;9.00;9.00;5.00
56495;PMS5003;42804;55.762;38.084;2023-07-13T09:34:06;11.00;10.00;7.00
56495;PMS5003;42804;55.762;38.084;2023-07-13T09:36:37;9.25;9.00;5.00
56495;PMS5003;42804;55.762;38.084;2023-07-13T09:39:09;8.00;8.00;5.00
56495;PMS5003;42804;55.762;38.084;2023-07-13T09:41:44;7.50;7.50;3.50
56495;PMS5003;42804;55.762;38.084;2023-07-13T09:44:16;10.25;9.50;7.00
56495;PMS5003;42804;55.762;38.084;2023-07-13T09:46:45;10.75;9.75;6.00
56495;PMS5003;42804;55.762;38.084;2023-07-13T09:49:14;10.25;9.00;6.00
56495;PMS5003;42804;55.762;38.084;2023-07-13T09:51:43;9.25;8.50;5.50
56495;PMS5003;42804;55.762;38.084;2023-07-13T09:54:18;9.25;8.75;5.25
56495;PMS5003;42804;55.762;38.084;2023-07-13T09:56:50;10.25;9.50;7.00
56495;PMS5003;42804;55.762;38.084;2023-07-13T09:59:22;9.00;9.00;6.50
56495;PMS5003;42804;55.762;38.084;2023-07-13T10:01:51;9.25;9.00;7.00
56495;PMS5003;42804;55.762;38.084;2023-07-13T10:04:27;7.00;5.75;2.50
56495;PMS5003;42804;55.762;38.084;2023-07-13T10:07:04;9.50;7.25;5.25
56495;PMS5003;42804;55.762;38.084;2023-07-13T10:09:53;10.50;10.25;7.50
56495;PMS5003;42804;55.762;38.084;2023-07-13T10:12:23;12.00;10.75;7.50
56495;PMS5003;42804;55.762;38.084;2023-07-13T10:14:52;9.00;9.00;6.00
56495;PMS5003;42804;55.762;38.084;2023-07-13T10:17:43;9.00;9.00;7.00
56495;PMS5003;42804;55.762;38.084;2023-07-13T10:20:12;10.75;9.75;8.25
56495;PMS5003;42804;55.762;38.084;2023-07-13T10:22:42;9.00;8.50;4.50
56495;PMS5003;42804;55.762;38.084;2023-07-13T10:25:13;10.00;9.50;5.25
56495;PMS5003;42804;55.762;38.084;2023-07-13T10:27:46;11.25;10.25;7.00
56495;PMS5003;42804;55.762;38.084;2023-07-13T10:30:17;8.75;8.75;6.00
56495;PMS5003;42804;55.762;38.084;2023-07-13T10:32:47;8.50;7.25;5.50
56495;PMS5003;42804;55.762;38.084;2023-07-13T10:35:17;11.25;11.25;8.00
56495;PMS5003;42804;55.762;38.084;2023-07-13T10:37:48;14.00;10.00;7.00
56495;PMS5003;42804;55.762;38.084;2023-07-13T10:40:19;12.00;11.00;7.00
56495;PMS5003;42804;55.762;38.084;2023-07-13T10:42:53;13.00;11.50;8.00
56495;PMS5003;42804;55.762;38.084;2023-07-13T10:45:23;10.75;10.00;5.50
56495;PMS5003;42804;55.762;38.084;2023-07-13T10:47:52;11.75;10.50;7.00
56495;PMS5003;42804;55.762;38.084;2023-07-13T10:50:23;9.75;7.50;5.00
56495;PMS5003;42804;55.762;38.084;2023-07-13T10:52:53;10.00;10.00;7.50
56495;PMS5003;42804;55.762;38.084;2023-07-13T10:55:36;11.20;9.20;6.20
56495;PMS5003;42804;55.762;38.084;2023-07-13T10:58:19;10.00;10.00;7.00
56495;PMS5003;42804;55.762;38.084;2023-07-13T11:00:49;9.00;8.75;6.75
56495;PMS5003;42804;55.762;38.084;2023-07-13T11:03:18;10.75;10.25;7.75
56495;PMS5003;42804;55.762;38.084;2023-07-13T11:05:49;13.50;11.75;7.50
56495;PMS5003;42804;55.762;38.084;2023-07-13T11:08:21;9.75;9.75;6.75
56495;PMS5003;42804;55.762;38.084;2023-07-13T11:10:59;9.00;7.50;4.00
56495;PMS5003;42804;55.762;38.084;2023-07-13T11:13:37;11.75;9.50;7.50
56495;PMS5003;42804;55.762;38.084;2023-07-13T11:16:12;9.00;8.50;6.25
56495;PMS5003;42804;55.762;38.084;2023-07-13T11:18:44;9.00;8.00;6.00
56495;PMS5003;42804;55.762;38.084;2023-07-13T11:21:14;9.00;8.00;4.00
56495;PMS5003;42804;55.762;38.084;2023-07-13T11:24:01;12.75;12.75;7.50
56495;PMS5003;42804;55.762;38.084;2023-07-13T11:26:41;7.25;7.00;4.50
56495;PMS5003;42804;55.762;38.084;2023-07-13T11:29:14;6.75;6.25;3.75
56495;PMS5003;42804;55.762;38.084;2023-07-13T11:31:52;8.50;7.50;4.00
56495;PMS5003;42804;55.762;38.084;2023-07-13T11:34:21;13.75;12.50;7.50
56495;PMS5003;42804;55.762;38.084;2023-07-13T11:36:53;8.75;8.25;4.00
56495;PMS5003;42804;55.762;38.084;2023-07-13T11:39:24;11.50;9.50;6.00
56495;PMS5003;42804;55.762;38.084;2023-07-13T11:41:59;3.75;3.75;2.00
56495;PMS5003;42804;55.762;38.084;2023-07-13T11:44:30;10.50;8.25;5.00
56495;PMS5003;42804;55.762;38.084;2023-07-13T11:46:59;12.00;10.50;8.00
56495;PMS5003;42804;55.762;38.084;2023-07-13T11:49:31;9.00;9.00;6.75
56495;PMS5003;42804;55.762;38.084;2023-07-13T11:52:00;12.25;11.50;7.00
56495;PMS5003;42804;55.762;38.084;2023-07-13T11:54:30;12.00;11.25;7.00
56495;PMS5003;42804;55.762;38.084;2023-07-13T11:57:01;12.50;12.50;7.25
56495;PMS5003;42804;55.762;38.084;2023-07-13T11:59:36;7.25;7.25;4.50
56495;PMS5003;42804;55.762;38.084;2023-07-13T12:02:08;11.00;11.00;7.25
56495;PMS5003;42804;55.762;38.084;2023-07-13T12:04:42;10.25;10.25;6.50
56495;PMS5003;42804;55.762;38.084;2023-07-13T12:07:14;11.75;9.75;3.50
56495;PMS5003;42804;55.762;38.084;2023-07-13T12:09:43;14.75;14.50;8.00
56495;PMS5003;42804;55.762;38.084;2023-07-13T12:12:12;12.25;9.75;7.00
56495;PMS5003;42804;55.762;38.084;2023-07-13T12:14:42;11.25;10.25;7.00
56495;PMS5003;42804;55.762;38.084;2023-07-13T12:17:13;13.50;11.25;7.00
56495;PMS5003;42804;55.762;38.084;2023-07-13T12:19:43;13.25;12.00;7.75
56495;PMS5003;42804;55.762;38.084;2023-07-13T12:22:12;13.50;12.25;8.50
56495;PMS5003;42804;55.762;38.084;2023-07-13T12:24:41;16.00;11.50;7.50
56495;PMS5003;42804;55.762;38.084;2023-07-13T12:27:13;12.25;11.75;7.75
56495;PMS5003;42804;55.762;38.084;2023-07-13T12:29:50;13.75;13.25;8.25
56495;PMS5003;42804;55.762;38.084;2023-07-13T12:32:20;15.25;13.75;9.00
56495;PMS5003;42804;55.762;38.084;2023-07-13T12:34:54;21.00;16.75;13.00
56495;PMS5003;42804;55.762;38.084;2023-07-13T12:37:23;10.50;8.50;3.25
56495;PMS5003;42804;55.762;38.084;2023-07-13T12:39:52;19.25;17.75;12.75
56495;PMS5003;42804;55.762;38.084;2023-07-13T12:42:21;19.50;15.50;9.00
56495;PMS5003;42804;55.762;38.084;2023-07-13T12:44:54;15.00;14.00;9.75
56495;PMS5003;42804;55.762;38.084;2023-07-13T12:47:24;14.25;11.00;9.00
56495;PMS5003;42804;55.762;38.084;2023-07-13T12:49:53;12.25;11.75;7.75
56495;PMS5003;42804;55.762;38.084;2023-07-13T12:52:23;14.50;14.00;9.00
56495;PMS5003;42804;55.762;38.084;2023-07-13T12:54:53;15.50;13.75;9.50
56495;PMS5003;42804;55.762;38.084;2023-07-13T12:57:36;13.50;12.00;5.00
56495;PMS5003;42804;55.762;38.084;2023-07-13T13:00:11;16.00;16.00;10.75
56495;PMS5003;42804;55.762;38.084;2023-07-13T13:02:48;16.75;15.50;10.75
56495;PMS5003;42804;55.762;38.084;2023-07-13T13:05:18;15.75;15.75;11.00
56495;PMS5003;42804;55.762;38.084;2023-07-13T13:07:50;15.00;14.00;10.00
56495;PMS5003;42804;55.762;38.084;2023-07-13T13:10:19;18.50;17.75;12.00
56495;PMS5003;42804;55.762;38.084;2023-07-13T13:12:48;15.67;15.67;10.00
56495;PMS5003;42804;55.762;38.084;2023-07-13T13:15:18;19.25;16.75;10.00
56495;PMS5003;42804;55.762;38.084;2023-07-13T13:17:48;13.25;13.25;9.75
56495;PMS5003;42804;55.762;38.084;2023-07-13T13:20:17;19.00;15.50;11.00
56495;PMS5003;42804;55.762;38.084;2023-07-13T13:22:46;18.00;17.50;12.75
56495;PMS5003;42804;55.762;38.084;2023-07-13T13:25:16;13.00;11.50;9.50
56495;PMS5003;42804;55.762;38.084;2023-07-13T13:27:45;20.50;19.00;12.00
56495;PMS5003;42804;55.762;38.084;2023-07-13T13:30:14;18.00;15.00;9.75
56495;PMS5003;42804;55.762;38.084;2023-07-13T13:32:46;15.50;13.75;8.50
56495;PMS5003;42804;55.762;38.084;2023-07-13T13:35:15;8.50;8.50;7.50
56495;PMS5003;42804;55.762;38.084;2023-07-13T13:37:44;14.75;13.75;9.50
56495;PMS5003;42804;55.762;38.084;2023-07-13T13:40:14;14.75;13.50;8.00
56495;PMS5003;42804;55.762;38.084;2023-07-13T13:42:44;18.25;16.25;9.00
56495;PMS5003;42804;55.762;38.084;2023-07-13T13:45:13;18.00;15.75;10.00
56495;PMS5003;42804;55.762;38.084;2023-07-13T13:47:43;15.25;13.75;8.75
56495;PMS5003;42804;55.762;38.084;2023-07-13T13:50:14;15.00;14.50;9.50
56495;PMS5003;42804;55.762;38.084;2023-07-13T13:52:43;17.50;14.75;9.00
56495;PMS5003;42804;55.762;38.084;2023-07-13T13:55:13;17.00;15.00;9.00
56495;PMS5003;42804;55.762;38.084;2023-07-13T13:57:42;19.00;18.25;12.50
56495;PMS5003;42804;55.762;38.084;2023-07-13T14:00:11;21.00;18.50;11.50
56495;PMS5003;42804;55.762;38.084;2023-07-13T14:02:42;18.25;15.25;11.00
56495;PMS5003;42804;55.762;38.084;2023-07-13T14:05:16;18.50;17.50;11.00
56495;PMS5003;42804;55.762;38.084;2023-07-13T14:07:46;13.50;12.75;9.50
56495;PMS5003;42804;55.762;38.084;2023-07-13T14:10:15;21.50;18.00;11.25
56495;PMS5003;42804;55.762;38.084;2023-07-13T14:12:46;17.00;15.00;10.50
56495;PMS5003;42804;55.762;38.084;2023-07-13T14:15:17;19.25;15.25;10.50
56495;PMS5003;42804;55.762;38.084;2023-07-13T14:17:48;19.25;19.00;12.00
56495;PMS5003;42804;55.762;38.084;2023-07-13T14:20:19;16.75;15.75;11.50